« Back
NWS Peachtree City, Ga » Text Product » CSG Terminal Aerodrome Forecast


Printer-friendly Version
Current Version              Previous Versions:   1  2  3  4  5  6  7  8  9  

Terminal Aerodrome Forecast

251
FTUS42 KFFC 160700 AAA
TAFCSG
TAF AMD
KCSG 160728Z 1607/1706 15003KT 6SM BR BKN009
     FM161000 22003KT 5SM BR BKN007
     FM161400 28005KT P6SM VCSH BKN015
     FM161600 32006KT P6SM VCSH SCT025 BKN040
      TEMPO 1616/1620 5SM -TSRA BR BKN025CB
     FM162100 33008KT P6SM SCT050 BKN100
     FM170200 34004KT P6SM SCT120 BKN250=

USA.gov is the U.S. government's official web portal to all federal, state and local government web resources and services.